createdAt,value
2022-10-11T00:01:42.000Z,10.7
2022-10-11T00:05:14.000Z,10
2022-10-11T00:08:47.000Z,14.7
2022-10-11T00:12:20.000Z,12
2022-10-11T00:15:52.000Z,7.7
2022-10-11T00:19:25.000Z,5.7
2022-10-11T00:22:57.000Z,6.3
2022-10-11T00:26:30.000Z,6
2022-10-11T00:29:21.000Z,7.3
2022-10-11T00:32:54.000Z,8.1
2022-10-11T00:36:26.000Z,7.8
2022-10-11T00:39:59.000Z,6.9
2022-10-11T00:43:31.000Z,8.2
2022-10-11T00:47:04.000Z,7
2022-10-11T00:50:37.000Z,8.1
2022-10-11T00:54:09.000Z,6.7
2022-10-11T00:57:42.000Z,11.6
2022-10-11T01:01:15.000Z,8.6
2022-10-11T01:04:47.000Z,9.8
2022-10-11T01:08:09.000Z,6.5
2022-10-11T01:11:41.000Z,11.1
2022-10-11T01:15:14.000Z,10.8
2022-10-11T01:18:47.000Z,14.1
2022-10-11T01:22:19.000Z,15.4
2022-10-11T01:25:52.000Z,8.9
2022-10-11T01:29:24.000Z,9.3
2022-10-11T01:32:57.000Z,12.2
2022-10-11T01:36:30.000Z,10.4
2022-10-11T01:40:02.000Z,15
2022-10-11T01:43:35.000Z,15.3
2022-10-11T01:46:26.000Z,11.3
2022-10-11T01:49:59.000Z,13.4
2022-10-11T01:53:31.000Z,13.2
2022-10-11T01:57:08.000Z,13.6
2022-10-11T02:00:41.000Z,15.6
2022-10-11T02:04:14.000Z,13.4
2022-10-11T02:07:46.000Z,13.2
2022-10-11T02:11:19.000Z,12.6
2022-10-11T02:14:51.000Z,12.1
2022-10-11T02:18:24.000Z,15.6
2022-10-11T02:21:57.000Z,12.8
2022-10-11T02:24:48.000Z,9.7
2022-10-11T02:28:21.000Z,11.4
2022-10-11T02:31:53.000Z,12.9
2022-10-11T02:35:26.000Z,8.9
2022-10-11T02:38:59.000Z,9.8
2022-10-11T02:42:31.000Z,9.8
2022-10-11T02:46:04.000Z,10.5
2022-10-11T02:49:36.000Z,11.9
2022-10-11T02:53:09.000Z,10.1
2022-10-11T02:56:42.000Z,9.3
2022-10-11T03:00:14.000Z,8.9
2022-10-11T03:03:05.000Z,14.2
2022-10-11T03:06:38.000Z,10
2022-10-11T03:10:10.000Z,11.3
2022-10-11T03:13:43.000Z,8.4
2022-10-11T03:17:16.000Z,10.2
2022-10-11T03:21:01.000Z,10.3
2022-10-11T03:24:34.000Z,11.8
2022-10-11T03:28:07.000Z,10.4
2022-10-11T03:31:40.000Z,10.7
2022-10-11T03:35:13.000Z,9.5
2022-10-11T03:38:45.000Z,11.6
2022-10-11T03:41:37.000Z,11.5
2022-10-11T03:45:09.000Z,11.8
2022-10-11T03:48:42.000Z,9
2022-10-11T03:52:14.000Z,10.9
2022-10-11T03:55:47.000Z,9.7
2022-10-11T03:59:20.000Z,8.5
2022-10-11T04:02:52.000Z,7.6
2022-10-11T04:06:25.000Z,10.8
2022-10-11T04:09:57.000Z,10.5
2022-10-11T04:13:30.000Z,7.2
2022-10-11T04:17:03.000Z,7.8
2022-10-11T04:19:54.000Z,11
2022-10-11T04:23:26.000Z,9.5
2022-10-11T04:26:59.000Z,10.2
2022-10-11T04:30:32.000Z,8.6
2022-10-11T04:34:04.000Z,13
2022-10-11T04:37:37.000Z,9.1
2022-10-11T04:41:10.000Z,12.5
2022-10-11T04:44:42.000Z,13.1
2022-10-11T04:48:15.000Z,13.7
2022-10-11T04:51:47.000Z,11.1
2022-10-11T04:55:20.000Z,11.1
2022-10-11T04:58:11.000Z,11.2
2022-10-11T05:01:48.000Z,10.5
2022-10-11T05:05:21.000Z,13.9
2022-10-11T05:08:54.000Z,11.5
2022-10-11T05:12:26.000Z,9.5
2022-10-11T05:15:59.000Z,11.4
2022-10-11T05:19:36.000Z,8.2
2022-10-11T05:23:09.000Z,12.9
2022-10-11T05:26:41.000Z,10.7
2022-10-11T05:30:14.000Z,10.3
2022-10-11T05:33:46.000Z,10.1
2022-10-11T05:36:37.000Z,9.6
2022-10-11T05:40:10.000Z,6.9
2022-10-11T05:43:43.000Z,6.7
2022-10-11T05:47:15.000Z,9.6
2022-10-11T05:50:48.000Z,7.8
2022-10-11T05:54:21.000Z,9
2022-10-11T05:57:53.000Z,9.3
2022-10-11T06:01:26.000Z,10
2022-10-11T06:04:59.000Z,10.1
2022-10-11T06:08:31.000Z,9.7
2022-10-11T06:12:04.000Z,10.8
2022-10-11T06:14:55.000Z,11.9
2022-10-11T06:18:28.000Z,9.8
2022-10-11T06:22:00.000Z,9
2022-10-11T06:25:33.000Z,6.9
2022-10-11T06:29:06.000Z,9.3
2022-10-11T06:32:38.000Z,10.2
2022-10-11T06:36:11.000Z,9
2022-10-11T06:39:43.000Z,11
2022-10-11T06:43:16.000Z,15.1
2022-10-11T06:46:49.000Z,13.7
2022-10-11T06:50:21.000Z,7.6
2022-10-11T06:53:42.000Z,8.6
2022-10-11T06:57:15.000Z,9.9
2022-10-11T07:00:47.000Z,6.7
2022-10-11T07:04:20.000Z,6.9
2022-10-11T07:07:58.000Z,9.3
2022-10-11T07:11:31.000Z,7.5
2022-10-11T07:15:04.000Z,10.8
2022-10-11T07:18:36.000Z,9.1
2022-10-11T07:22:09.000Z,14.2
2022-10-11T07:25:42.000Z,17.8
2022-10-11T07:29:14.000Z,16.5
2022-10-11T07:32:05.000Z,16.5
2022-10-11T07:35:38.000Z,19.1
2022-10-11T07:39:13.000Z,17.3
2022-10-11T07:42:46.000Z,18
2022-10-11T07:46:19.000Z,16.2
2022-10-11T07:49:51.000Z,16.9
2022-10-11T07:53:24.000Z,18.9
2022-10-11T07:56:57.000Z,21.7
2022-10-11T08:00:29.000Z,20.3
2022-10-11T08:04:02.000Z,13.4
2022-10-11T08:07:35.000Z,15
2022-10-11T08:10:27.000Z,12.6
2022-10-11T08:13:59.000Z,13.2
2022-10-11T08:17:32.000Z,15.5
2022-10-11T08:21:04.000Z,14.2
2022-10-11T08:24:37.000Z,13.1
2022-10-11T08:28:10.000Z,16
2022-10-11T08:31:43.000Z,13.8
2022-10-11T08:35:15.000Z,20.7
2022-10-11T08:38:48.000Z,18.8
2022-10-11T08:42:21.000Z,22.2
2022-10-11T08:45:53.000Z,18.5
2022-10-11T08:48:45.000Z,17.8
2022-10-11T08:52:17.000Z,17.5
2022-10-11T08:55:50.000Z,18.6
2022-10-11T08:59:22.000Z,14.4
2022-10-11T09:02:55.000Z,12.4
2022-10-11T09:06:34.000Z,16.8
2022-10-11T09:10:07.000Z,15.3
2022-10-11T09:13:40.000Z,20
2022-10-11T09:17:12.000Z,16.7
2022-10-11T09:20:45.000Z,18
2022-10-11T09:24:17.000Z,15.2
2022-10-11T09:27:09.000Z,15.8
2022-10-11T09:30:41.000Z,13.3
2022-10-11T09:34:14.000Z,13.7
2022-10-11T09:37:47.000Z,15.1
2022-10-11T09:41:19.000Z,14.6
2022-10-11T09:44:52.000Z,12.6
2022-10-11T09:48:24.000Z,13.5
2022-10-11T09:51:57.000Z,18
2022-10-11T09:55:29.000Z,11.6
2022-10-11T09:59:02.000Z,10.5
2022-10-11T10:02:35.000Z,15
2022-10-11T10:05:26.000Z,11.1
2022-10-11T10:08:59.000Z,14.7
2022-10-11T10:12:31.000Z,12.8
2022-10-11T10:16:04.000Z,12.1
2022-10-11T10:19:37.000Z,15.5
2022-10-11T10:23:10.000Z,11.2
2022-10-11T10:26:43.000Z,11.1
2022-10-11T10:30:15.000Z,10.7
2022-10-11T10:34:12.000Z,9.4
2022-10-11T10:37:44.000Z,11
2022-10-11T10:41:17.000Z,11.8
2022-10-11T10:44:08.000Z,11.7
2022-10-11T10:47:41.000Z,10.7
2022-10-11T10:51:53.000Z,7.9
2022-10-11T10:55:25.000Z,10.9
2022-10-11T10:58:58.000Z,7.2
2022-10-11T11:02:31.000Z,8.8
2022-10-11T11:06:06.000Z,8.4
2022-10-11T11:09:39.000Z,13.6
2022-10-11T11:13:12.000Z,11.7
2022-10-11T11:16:44.000Z,9.2
2022-10-11T11:20:17.000Z,11.7
2022-10-11T11:23:08.000Z,11.5
2022-10-11T11:26:40.000Z,6.6
2022-10-11T11:30:13.000Z,8.9
2022-10-11T11:33:46.000Z,8.1
2022-10-11T11:37:18.000Z,6.5
2022-10-11T11:40:51.000Z,11
2022-10-11T11:44:23.000Z,10.4
2022-10-11T11:47:56.000Z,8.7
2022-10-11T11:51:29.000Z,10.5
2022-10-11T11:55:02.000Z,10.3
2022-10-11T11:58:34.000Z,7.9
2022-10-11T12:01:25.000Z,7.9
2022-10-11T12:04:58.000Z,5.5
2022-10-11T12:08:30.000Z,6.8
2022-10-11T12:12:03.000Z,7.2
2022-10-11T12:15:36.000Z,8.2
2022-10-11T12:19:08.000Z,7.1
2022-10-11T12:22:41.000Z,7.5
2022-10-11T12:26:14.000Z,6.4
2022-10-11T12:29:46.000Z,8.2
2022-10-11T12:33:19.000Z,7.6
2022-10-11T12:36:52.000Z,6.5
2022-10-11T12:39:49.000Z,7
2022-10-11T12:43:22.000Z,7.2
2022-10-11T12:46:54.000Z,7.7
2022-10-11T12:50:34.000Z,8.7
2022-10-11T12:54:07.000Z,5.2
2022-10-11T12:57:54.000Z,7.1
2022-10-11T13:01:26.000Z,7.3
2022-10-11T13:04:59.000Z,6.4
2022-10-11T13:08:32.000Z,5.9
2022-10-11T13:12:04.000Z,6.5
2022-10-11T13:15:37.000Z,8.2
2022-10-11T13:18:28.000Z,7
2022-10-11T13:22:01.000Z,8.6
2022-10-11T13:25:34.000Z,7.9
2022-10-11T13:29:06.000Z,8.3
2022-10-11T13:32:39.000Z,5
2022-10-11T13:36:11.000Z,8.1
2022-10-11T13:39:44.000Z,6.9
2022-10-11T13:43:17.000Z,5.1
2022-10-11T13:46:49.000Z,6.6
2022-10-11T13:50:26.000Z,7.8
2022-10-11T13:53:59.000Z,9.3
2022-10-11T13:56:56.000Z,6.5
2022-10-11T14:00:29.000Z,6.2
2022-10-11T14:04:01.000Z,8.6
2022-10-11T14:07:34.000Z,8.9
2022-10-11T14:11:07.000Z,4.5
2022-10-11T14:14:39.000Z,6.5
2022-10-11T14:18:12.000Z,7.8
2022-10-11T14:21:44.000Z,7.6
2022-10-11T14:25:17.000Z,6.6
2022-10-11T14:28:49.000Z,8
2022-10-11T14:32:26.000Z,6.7
2022-10-11T14:35:17.000Z,6.4
2022-10-11T14:38:50.000Z,6.4
2022-10-11T14:42:22.000Z,6
2022-10-11T14:45:55.000Z,6.8
2022-10-11T14:49:28.000Z,5.2
2022-10-11T14:53:01.000Z,5.6
2022-10-11T14:56:33.000Z,5
2022-10-11T15:00:06.000Z,5.2
2022-10-11T15:03:39.000Z,8.2
2022-10-11T15:07:11.000Z,5.7
2022-10-11T15:10:44.000Z,7.5
2022-10-11T15:13:35.000Z,8.1
2022-10-11T15:17:14.000Z,7.1
2022-10-11T15:20:47.000Z,5.5
2022-10-11T15:24:20.000Z,7.1
2022-10-11T15:27:52.000Z,7
2022-10-11T15:31:25.000Z,10.8
2022-10-11T15:34:57.000Z,6.6
2022-10-11T15:38:30.000Z,7.8
2022-10-11T15:42:03.000Z,5.8
2022-10-11T15:45:35.000Z,5.8
2022-10-11T15:49:08.000Z,6.2
2022-10-11T15:51:59.000Z,15.1
2022-10-11T15:55:32.000Z,15.6
2022-10-11T15:59:05.000Z,16.5
2022-10-11T16:02:37.000Z,11.6
2022-10-11T16:06:10.000Z,6.5
2022-10-11T16:09:43.000Z,7.7
2022-10-11T16:13:15.000Z,5.6
2022-10-11T16:16:48.000Z,7.8
2022-10-11T16:20:20.000Z,9.3
2022-10-11T16:23:53.000Z,6.7
2022-10-11T16:27:26.000Z,9.7
2022-10-11T16:30:17.000Z,11.3
2022-10-11T16:33:49.000Z,13.6
2022-10-11T16:37:22.000Z,10.5
2022-10-11T16:40:54.000Z,11.6
2022-10-11T16:44:27.000Z,9.1
2022-10-11T16:48:00.000Z,6.6
2022-10-11T16:51:32.000Z,6.1
2022-10-11T16:55:05.000Z,7.3
2022-10-11T16:58:39.000Z,6.3
2022-10-11T17:02:11.000Z,11.7
2022-10-11T17:05:44.000Z,10.2
2022-10-11T17:08:35.000Z,10.9
2022-10-11T17:12:08.000Z,11.2
2022-10-11T17:15:40.000Z,12.7
2022-10-11T17:19:13.000Z,8.8
2022-10-11T17:22:45.000Z,6
2022-10-11T17:26:18.000Z,7.6
2022-10-11T17:29:50.000Z,8.3
2022-10-11T17:33:23.000Z,11.4
2022-10-11T17:36:56.000Z,7.2
2022-10-11T17:40:28.000Z,7.8
2022-10-11T17:44:01.000Z,8.1
2022-10-11T17:46:52.000Z,7.5
2022-10-11T17:50:24.000Z,10.7
2022-10-11T17:53:57.000Z,6.7
2022-10-11T17:57:30.000Z,7.2
2022-10-11T18:01:02.000Z,9.2
2022-10-11T18:04:36.000Z,5.3
2022-10-11T18:08:09.000Z,8.2
2022-10-11T18:11:41.000Z,8.7
2022-10-11T18:15:14.000Z,12.8
2022-10-11T18:18:47.000Z,35.5
2022-10-11T18:22:19.000Z,13.9
2022-10-11T18:25:10.000Z,14.8
2022-10-11T18:28:43.000Z,13.8
2022-10-11T18:32:15.000Z,9.7
2022-10-11T18:35:48.000Z,8.6
2022-10-11T18:39:21.000Z,9.7
2022-10-11T18:42:53.000Z,10.2
2022-10-11T18:46:26.000Z,9
2022-10-11T18:49:58.000Z,10.7
2022-10-11T18:53:31.000Z,10.9
2022-10-11T18:57:04.000Z,17.7
2022-10-11T19:00:36.000Z,11.3
2022-10-11T19:03:27.000Z,12.1
2022-10-11T19:07:01.000Z,8.5
2022-10-11T19:10:33.000Z,7.2
2022-10-11T19:14:06.000Z,8
2022-10-11T19:17:38.000Z,13.7
2022-10-11T19:21:11.000Z,13.6
2022-10-11T19:24:43.000Z,8.1
2022-10-11T19:28:16.000Z,6.8
2022-10-11T19:31:49.000Z,13
2022-10-11T19:35:22.000Z,10.9
2022-10-11T19:38:54.000Z,8.1
2022-10-11T19:41:45.000Z,9.4
2022-10-11T19:45:18.000Z,9.7
2022-10-11T19:48:52.000Z,9.1
2022-10-11T19:52:24.000Z,7.2
2022-10-11T19:55:57.000Z,6.9
2022-10-11T19:59:30.000Z,7.7
2022-10-11T20:03:03.000Z,6.9
2022-10-11T20:06:51.000Z,6.5
2022-10-11T20:10:24.000Z,10.6
2022-10-11T20:13:56.000Z,6.9
2022-10-11T20:17:29.000Z,8.6
2022-10-11T20:20:20.000Z,9.2
2022-10-11T20:23:53.000Z,4.2
2022-10-11T20:27:25.000Z,7.3
2022-10-11T20:30:59.000Z,7.2
2022-10-11T20:34:31.000Z,8
2022-10-11T20:38:04.000Z,7.8
2022-10-11T20:41:36.000Z,7.6
2022-10-11T20:45:09.000Z,7.8
2022-10-11T20:48:41.000Z,7
2022-10-11T20:52:21.000Z,7.2
2022-10-11T20:55:54.000Z,7
2022-10-11T20:58:45.000Z,7.4
2022-10-11T21:02:18.000Z,6.9
2022-10-11T21:05:50.000Z,4.2
2022-10-11T21:09:23.000Z,6.8
2022-10-11T21:12:56.000Z,5.4
2022-10-11T21:16:28.000Z,6.1
2022-10-11T21:20:01.000Z,6
2022-10-11T21:23:34.000Z,6.1
2022-10-11T21:27:06.000Z,9.2
2022-10-11T21:30:39.000Z,8.2
2022-10-11T21:34:13.000Z,7.2
2022-10-11T21:37:04.000Z,6.7
2022-10-11T21:40:36.000Z,5.9
2022-10-11T21:44:09.000Z,5.7
2022-10-11T21:47:42.000Z,6.2
2022-10-11T21:51:14.000Z,6.7
2022-10-11T21:54:47.000Z,8.4
2022-10-11T21:58:20.000Z,7.8
2022-10-11T22:01:52.000Z,9.6
2022-10-11T22:05:27.000Z,6.2
2022-10-11T22:09:00.000Z,6.3
2022-10-11T22:12:32.000Z,8.9
2022-10-11T22:15:23.000Z,4.4
2022-10-11T22:18:56.000Z,7.5
2022-10-11T22:22:29.000Z,8.5
2022-10-11T22:26:02.000Z,10.3
2022-10-11T22:29:35.000Z,8
2022-10-11T22:33:07.000Z,9.1
2022-10-11T22:36:40.000Z,3.9
2022-10-11T22:40:12.000Z,8
2022-10-11T22:43:45.000Z,10.9
2022-10-11T22:47:18.000Z,6.7
2022-10-11T22:50:50.000Z,6.7
2022-10-11T22:53:41.000Z,7.1
2022-10-11T22:57:18.000Z,7.3
2022-10-11T23:00:51.000Z,7.3
2022-10-11T23:04:24.000Z,6.6
2022-10-11T23:07:56.000Z,7.3
2022-10-11T23:11:29.000Z,10.7
2022-10-11T23:15:02.000Z,5.1
2022-10-11T23:18:34.000Z,6.4
2022-10-11T23:22:07.000Z,4.3
2022-10-11T23:25:39.000Z,5.2
2022-10-11T23:29:12.000Z,9.5
2022-10-11T23:32:04.000Z,7.7
2022-10-11T23:35:36.000Z,6.5
2022-10-11T23:39:09.000Z,5.4
2022-10-11T23:42:41.000Z,8.8
2022-10-11T23:46:14.000Z,8.3
2022-10-11T23:49:46.000Z,6
2022-10-11T23:53:19.000Z,5.5
2022-10-11T23:56:52.000Z,4.5
